createdAt,value
2019-04-28T00:00:46.509Z,6.93
2019-04-28T00:03:16.252Z,5.70
2019-04-28T00:05:46.115Z,6.13
2019-04-28T00:08:15.851Z,5.07
2019-04-28T00:10:45.583Z,5.33
2019-04-28T00:13:15.469Z,4.93
2019-04-28T00:15:45.212Z,6.57
2019-04-28T00:18:14.974Z,4.60
2019-04-28T00:20:46.318Z,5.30
2019-04-28T00:23:23.423Z,5.80
2019-04-28T00:26:01.530Z,5.80
2019-04-28T00:28:33.487Z,5.70
2019-04-28T00:31:03.154Z,9.90
2019-04-28T00:33:32.926Z,8.57
2019-04-28T00:36:04.407Z,8.77
2019-04-28T00:38:34.145Z,10.43
2019-04-28T00:41:04.077Z,6.10
2019-04-28T00:43:33.839Z,5.20
2019-04-28T00:46:05.234Z,10.63
2019-04-28T00:48:35.048Z,6.50
2019-04-28T00:51:05.014Z,7.93
2019-04-28T00:53:34.781Z,8.37
2019-04-28T00:56:04.457Z,4.07
2019-04-28T00:58:34.129Z,5.40
2019-04-28T01:01:08.245Z,4.73
2019-04-28T01:03:38.157Z,5.17
2019-04-28T01:06:09.478Z,5.63
2019-04-28T01:08:39.163Z,7.43
2019-04-28T01:11:08.919Z,7.60
2019-04-28T01:13:38.709Z,5.13
2019-04-28T01:16:12.784Z,7.33
2019-04-28T01:19:00.100Z,4.33
2019-04-28T01:21:32.386Z,7.07
2019-04-28T01:24:02.186Z,6.50
2019-04-28T01:26:31.952Z,9.47
2019-04-28T01:29:01.637Z,4.17
2019-04-28T01:31:45.206Z,7.63
2019-04-28T01:34:22.712Z,7.80
2019-04-28T01:36:52.594Z,7.23
2019-04-28T01:39:22.340Z,9.53
2019-04-28T01:41:52.122Z,10.13
2019-04-28T01:44:21.901Z,10.43
2019-04-28T01:46:51.673Z,9.80
2019-04-28T01:49:21.663Z,7.70
2019-04-28T01:52:00.515Z,9.77
2019-04-28T01:54:30.350Z,11.93
2019-04-28T01:57:01.354Z,7.80
2019-04-28T01:59:31.198Z,9.10
2019-04-28T02:02:00.904Z,11.87
2019-04-28T02:04:32.494Z,8.13
2019-04-28T02:07:03.053Z,12.43
2019-04-28T02:09:32.787Z,14.33
2019-04-28T02:12:02.505Z,14.00
2019-04-28T02:14:32.258Z,12.50
2019-04-28T02:17:02.107Z,10.67
2019-04-28T02:19:33.192Z,14.50
2019-04-28T02:22:20.963Z,14.20
2019-04-28T02:24:50.729Z,13.30
2019-04-28T02:27:20.730Z,8.97
2019-04-28T02:29:50.402Z,12.60
2019-04-28T02:32:24.364Z,8.47
2019-04-28T02:34:53.100Z,9.57
2019-04-28T02:37:22.773Z,10.23
2019-04-28T02:39:52.497Z,9.17
2019-04-28T02:42:22.266Z,8.90
2019-04-28T02:44:52.288Z,9.50
2019-04-28T02:47:22.202Z,12.20
2019-04-28T02:49:54.706Z,14.43
2019-04-28T02:52:31.036Z,9.27
2019-04-28T02:55:03.058Z,5.83
2019-04-28T02:57:33.753Z,11.87
2019-04-28T03:00:05.456Z,11.83
2019-04-28T03:02:35.220Z,10.40
2019-04-28T03:05:06.866Z,10.07
2019-04-28T03:07:36.578Z,8.00
2019-04-28T03:10:06.954Z,9.70
2019-04-28T03:12:36.694Z,8.90
2019-04-28T03:15:10.205Z,10.13
2019-04-28T03:17:40.708Z,7.10
2019-04-28T03:20:11.535Z,8.00
2019-04-28T03:22:41.368Z,9.57
2019-04-28T03:25:12.741Z,11.63
2019-04-28T03:28:00.630Z,6.77
2019-04-28T03:30:53.896Z,10.77
2019-04-28T03:33:25.544Z,12.70
2019-04-28T03:35:54.615Z,13.00
2019-04-28T03:38:25.963Z,9.63
2019-04-28T03:40:55.814Z,11.33
2019-04-28T03:43:25.529Z,8.47
2019-04-28T03:46:02.787Z,11.73
2019-04-28T03:48:33.570Z,9.90
2019-04-28T03:51:02.693Z,11.37
2019-04-28T03:53:32.478Z,11.40
2019-04-28T03:56:02.235Z,8.33
2019-04-28T03:58:31.989Z,11.30
2019-04-28T04:01:03.298Z,11.30
2019-04-28T04:03:33.233Z,9.37
2019-04-28T04:06:02.940Z,9.73
2019-04-28T04:08:32.722Z,14.17
2019-04-28T04:11:06.818Z,12.37
2019-04-28T04:13:41.726Z,20.50
2019-04-28T04:16:20.743Z,13.73
2019-04-28T04:19:01.810Z,15.30
2019-04-28T04:21:31.588Z,13.13
2019-04-28T04:24:01.335Z,18.57
2019-04-28T04:26:33.373Z,9.23
2019-04-28T04:29:02.396Z,14.37
2019-04-28T04:31:32.246Z,12.83
2019-04-28T04:34:03.312Z,12.77
2019-04-28T04:36:33.395Z,11.90
2019-04-28T04:39:03.592Z,11.03
2019-04-28T04:41:33.876Z,13.00
2019-04-28T04:44:03.730Z,22.63
2019-04-28T04:46:33.502Z,16.83
2019-04-28T04:49:03.238Z,10.63
2019-04-28T04:51:33.037Z,11.70
2019-04-28T04:54:02.753Z,12.80
2019-04-28T04:56:32.448Z,11.60
2019-04-28T04:59:02.752Z,15.67
2019-04-28T05:01:37.431Z,8.10
2019-04-28T05:04:25.729Z,10.57
2019-04-28T05:06:55.509Z,10.80
2019-04-28T05:09:25.267Z,14.83
2019-04-28T05:11:55.003Z,10.10
2019-04-28T05:14:24.786Z,14.40
2019-04-28T05:16:54.467Z,15.53
2019-04-28T05:19:24.168Z,17.83
2019-04-28T05:21:53.846Z,13.83
2019-04-28T05:24:25.205Z,16.40
2019-04-28T05:26:54.965Z,19.50
2019-04-28T05:29:26.732Z,12.73
2019-04-28T05:32:01.837Z,11.03
2019-04-28T05:34:29.531Z,6.70
2019-04-28T05:37:00.558Z,11.93
2019-04-28T05:39:30.298Z,15.03
2019-04-28T05:42:00.827Z,13.80
2019-04-28T05:44:32.255Z,13.13
2019-04-28T05:47:02.558Z,9.73
2019-04-28T05:49:39.798Z,11.23
2019-04-28T05:52:27.438Z,10.33
2019-04-28T05:54:59.801Z,10.83
2019-04-28T05:57:37.190Z,8.47
2019-04-28T06:00:19.798Z,7.77
2019-04-28T06:02:56.550Z,10.67
2019-04-28T06:05:22.480Z,9.70
2019-04-28T06:07:57.252Z,8.03
2019-04-28T06:10:26.948Z,7.93
2019-04-28T06:12:56.621Z,13.30
2019-04-28T06:15:26.398Z,5.30
2019-04-28T06:17:56.168Z,8.90
2019-04-28T06:20:26.662Z,7.30
2019-04-28T06:22:56.359Z,4.90
2019-04-28T06:25:26.240Z,6.13
2019-04-28T06:27:56.276Z,6.87
2019-04-28T06:30:26.024Z,8.23
2019-04-28T06:33:07.120Z,4.53
2019-04-28T06:35:27.159Z,7.13
2019-04-28T06:37:56.883Z,9.37
2019-04-28T06:40:26.612Z,7.37
2019-04-28T06:42:56.304Z,6.20
2019-04-28T06:45:26.070Z,8.10
2019-04-28T06:47:57.562Z,7.57
2019-04-28T06:50:33.000Z,3.97
2019-04-28T06:53:03.034Z,5.13
2019-04-28T06:55:45.284Z,8.10
2019-04-28T06:58:15.001Z,6.70
2019-04-28T07:00:44.706Z,6.07
2019-04-28T07:03:23.013Z,8.13
2019-04-28T07:05:45.825Z,7.17
2019-04-28T07:08:15.496Z,6.97
2019-04-28T07:10:45.172Z,10.90
2019-04-28T07:13:14.926Z,6.23
2019-04-28T07:15:44.724Z,6.97
2019-04-28T07:18:14.414Z,9.63
2019-04-28T07:20:48.533Z,4.80
2019-04-28T07:23:18.276Z,6.87
2019-04-28T07:25:47.974Z,5.80
2019-04-28T07:28:17.666Z,4.67
2019-04-28T07:30:47.437Z,3.33
2019-04-28T07:33:17.245Z,8.80
2019-04-28T07:35:47.127Z,6.33
2019-04-28T07:38:16.876Z,4.60
2019-04-28T07:40:46.646Z,5.30
2019-04-28T07:43:16.434Z,4.17
2019-04-28T07:45:47.500Z,2.13
2019-04-28T07:48:17.271Z,5.53
2019-04-28T07:50:47.019Z,3.87
2019-04-28T07:53:33.385Z,6.77
2019-04-28T07:56:03.091Z,8.37
2019-04-28T07:58:32.805Z,7.70
2019-04-28T08:01:03.914Z,8.03
2019-04-28T08:03:33.673Z,6.03
2019-04-28T08:06:03.461Z,4.60
2019-04-28T08:08:33.150Z,2.53
2019-04-28T08:11:03.314Z,5.83
2019-04-28T08:13:33.014Z,4.63
2019-04-28T08:16:02.683Z,3.13
2019-04-28T08:18:32.462Z,5.40
2019-04-28T08:21:02.140Z,3.70
2019-04-28T08:23:31.950Z,4.67
2019-04-28T08:26:01.804Z,3.67
2019-04-28T08:28:31.659Z,4.17
2019-04-28T08:31:02.365Z,3.37
2019-04-28T08:33:33.733Z,4.30
2019-04-28T08:36:03.806Z,5.13
2019-04-28T08:38:33.584Z,3.67
2019-04-28T08:41:04.339Z,3.23
2019-04-28T08:43:34.021Z,3.87
2019-04-28T08:46:03.808Z,3.73
2019-04-28T08:48:33.715Z,3.50
2019-04-28T08:51:05.614Z,3.20
2019-04-28T08:53:35.091Z,3.97
2019-04-28T08:56:05.090Z,3.93
2019-04-28T08:58:34.860Z,4.97
2019-04-28T09:01:04.623Z,2.03
2019-04-28T09:03:34.425Z,4.37
2019-04-28T09:06:04.152Z,5.23
2019-04-28T09:08:33.801Z,5.77
2019-04-28T09:11:03.653Z,8.50
2019-04-28T09:13:33.433Z,4.30
2019-04-28T09:16:03.244Z,4.93
2019-04-28T09:18:34.110Z,3.70
2019-04-28T09:21:03.824Z,4.23
2019-04-28T09:23:36.655Z,4.00
2019-04-28T09:26:06.526Z,4.10
2019-04-28T09:28:36.291Z,3.53
2019-04-28T09:31:06.372Z,3.57
2019-04-28T09:33:36.069Z,3.90
2019-04-28T09:36:05.839Z,2.30
2019-04-28T09:38:35.549Z,3.00
2019-04-28T09:41:05.256Z,3.80
2019-04-28T09:43:53.278Z,4.43
2019-04-28T09:46:24.649Z,4.03
2019-04-28T09:48:54.441Z,4.57
2019-04-28T09:51:24.210Z,4.30
2019-04-28T09:53:54.030Z,4.00
2019-04-28T09:56:23.980Z,3.43
2019-04-28T09:58:54.732Z,7.23
2019-04-28T10:01:24.508Z,4.23
2019-04-28T10:03:54.264Z,2.17
2019-04-28T10:06:24.049Z,2.77
2019-04-28T10:08:53.790Z,3.43
2019-04-28T10:11:30.252Z,3.23
2019-04-28T10:13:57.019Z,2.77
2019-04-28T10:16:26.493Z,2.20
2019-04-28T10:18:57.270Z,1.43
2019-04-28T10:21:27.085Z,2.80
2019-04-28T10:23:56.903Z,1.90
2019-04-28T10:26:26.715Z,3.00
2019-04-28T10:29:15.760Z,3.87
2019-04-28T10:31:45.548Z,2.90
2019-04-28T10:34:15.295Z,1.83
2019-04-28T10:36:45.085Z,3.03
2019-04-28T10:39:23.759Z,2.37
2019-04-28T10:41:53.518Z,2.13
2019-04-28T10:44:24.174Z,3.53
2019-04-28T10:46:53.981Z,3.83
2019-04-28T10:49:23.697Z,2.97
2019-04-28T10:51:59.603Z,3.07
2019-04-28T10:54:25.876Z,3.03
2019-04-28T10:56:55.666Z,2.10
2019-04-28T10:59:25.454Z,2.55
2019-04-28T11:01:55.221Z,3.17
2019-04-28T11:04:38.822Z,1.97
2019-04-28T11:07:10.376Z,2.53
2019-04-28T11:09:41.691Z,3.52
2019-04-28T11:12:22.259Z,3.10
2019-04-28T11:14:52.184Z,3.80
2019-04-28T11:17:23.018Z,2.90
2019-04-28T11:22:50.477Z,4.23
2019-04-28T11:25:20.264Z,2.62
2019-04-28T11:27:50.983Z,4.62
2019-04-28T11:30:21.614Z,3.40
2019-04-28T11:33:08.039Z,4.10
2019-04-28T11:35:39.569Z,2.47
2019-04-28T11:38:09.361Z,2.70
2019-04-28T11:40:39.065Z,1.70
2019-04-28T11:43:08.910Z,5.03
2019-04-28T11:45:38.741Z,2.40
2019-04-28T11:48:08.444Z,2.70
2019-04-28T11:50:38.179Z,3.00
2019-04-28T11:53:08.018Z,2.65
2019-04-28T11:55:37.743Z,2.83
2019-04-28T11:58:07.507Z,3.75
2019-04-28T12:00:37.606Z,3.52
2019-04-28T12:03:07.362Z,2.47
2019-04-28T12:05:41.401Z,2.98
2019-04-28T12:08:11.072Z,3.30
2019-04-28T12:10:51.808Z,3.25
2019-04-28T12:13:41.296Z,2.17
2019-04-28T12:16:29.866Z,2.77
2019-04-28T12:21:52.848Z,3.58
2019-04-28T12:24:22.588Z,2.37
2019-04-28T12:26:53.365Z,3.80
2019-04-28T12:29:23.138Z,2.35
2019-04-28T12:31:52.875Z,2.50
2019-04-28T12:34:22.653Z,4.78
2019-04-28T12:36:52.336Z,2.67
2019-04-28T12:39:22.048Z,2.65
2019-04-28T12:41:51.731Z,3.67
2019-04-28T12:44:21.518Z,3.95
2019-04-28T12:47:03.855Z,2.00
2019-04-28T12:49:41.104Z,4.17
2019-04-28T12:52:12.571Z,4.05
2019-04-28T12:54:44.680Z,2.75
2019-04-28T12:57:14.263Z,3.58
2019-04-28T12:59:57.504Z,2.67
2019-04-28T13:02:46.599Z,2.33
2019-04-28T13:05:17.880Z,3.22
2019-04-28T13:07:47.727Z,2.77
2019-04-28T13:10:17.495Z,3.15
2019-04-28T13:12:47.534Z,3.75
2019-04-28T13:15:17.479Z,2.70
2019-04-28T13:17:47.195Z,5.33
2019-04-28T13:20:16.915Z,2.02
2019-04-28T13:22:46.679Z,5.40
2019-04-28T13:25:16.466Z,3.65
2019-04-28T13:27:46.234Z,3.40
2019-04-28T13:30:17.692Z,4.62
2019-04-28T13:32:47.466Z,4.10
2019-04-28T13:35:17.337Z,4.55
2019-04-28T13:37:47.029Z,3.02
2019-04-28T13:40:19.029Z,5.15
2019-04-28T13:43:00.875Z,3.95
2019-04-28T13:45:48.227Z,5.10
2019-04-28T13:48:15.595Z,4.45
2019-04-28T13:50:45.371Z,3.35
2019-04-28T13:53:15.272Z,1.77
2019-04-28T13:55:46.608Z,2.62
2019-04-28T13:58:29.883Z,3.00
2019-04-28T14:01:13.463Z,3.98
2019-04-28T14:03:59.878Z,5.17
2019-04-28T14:06:31.235Z,2.52
2019-04-28T14:09:01.691Z,3.23
2019-04-28T14:11:33.011Z,3.80
2019-04-28T14:14:02.827Z,3.25
2019-04-28T14:19:22.540Z,3.02
2019-04-28T14:21:52.310Z,2.85
2019-04-28T14:24:22.126Z,2.80
2019-04-28T14:26:51.931Z,1.85
2019-04-28T14:29:21.632Z,1.55
2019-04-28T14:31:51.487Z,1.52
2019-04-28T14:34:21.273Z,3.47
2019-04-28T14:36:52.331Z,2.47
2019-04-28T14:39:22.092Z,2.30
2019-04-28T14:41:53.499Z,2.25
2019-04-28T14:44:25.984Z,2.85
2019-04-28T14:46:55.773Z,3.67
2019-04-28T14:49:25.573Z,4.45
2019-04-28T14:51:55.259Z,4.00
2019-04-28T14:54:24.980Z,4.92
2019-04-28T14:56:55.671Z,3.20
2019-04-28T14:59:25.486Z,2.30
2019-04-28T15:02:12.185Z,2.37
2019-04-28T15:05:02.299Z,2.30
2019-04-28T15:07:50.250Z,2.17
2019-04-28T15:10:38.014Z,2.65
2019-04-28T15:13:08.162Z,2.10
2019-04-28T15:15:38.490Z,4.70
2019-04-28T15:18:09.783Z,2.52
2019-04-28T15:20:39.566Z,2.33
2019-04-28T15:23:09.357Z,3.42
2019-04-28T15:25:40.436Z,2.10
2019-04-28T15:28:10.734Z,3.15
2019-04-28T15:30:40.426Z,1.22
2019-04-28T15:33:12.744Z,5.03
2019-04-28T15:35:42.961Z,2.15
2019-04-28T15:38:13.816Z,1.80
2019-04-28T15:40:43.729Z,5.50
2019-04-28T15:43:13.490Z,1.22
2019-04-28T15:45:43.465Z,3.67
2019-04-28T15:48:13.269Z,0.95
2019-04-28T15:50:43.243Z,1.60
2019-04-28T15:53:25.649Z,3.00
2019-04-28T15:56:01.567Z,2.10
2019-04-28T15:58:35.887Z,4.37
2019-04-28T16:01:05.801Z,2.25
2019-04-28T16:03:36.147Z,3.35
2019-04-28T16:06:05.941Z,1.52
2019-04-28T16:08:38.761Z,1.67
2019-04-28T16:11:08.532Z,3.87
2019-04-28T16:13:38.474Z,2.47
2019-04-28T16:16:08.193Z,1.72
2019-04-28T16:18:37.875Z,3.35
2019-04-28T16:21:07.592Z,2.83
2019-04-28T16:23:37.456Z,2.62
2019-04-28T16:26:08.260Z,2.50
2019-04-28T16:28:38.127Z,2.75
2019-04-28T16:31:09.295Z,5.50
2019-04-28T16:33:40.240Z,1.77
2019-04-28T16:36:11.016Z,2.08
2019-04-28T16:38:41.740Z,2.27
2019-04-28T16:41:12.073Z,2.10
2019-04-28T16:43:50.560Z,2.52
2019-04-28T16:46:20.312Z,3.02
2019-04-28T16:48:51.795Z,1.37
2019-04-28T16:51:21.560Z,3.05
2019-04-28T16:53:51.356Z,4.20
2019-04-28T16:56:25.542Z,2.98
2019-04-28T16:59:12.348Z,2.62
2019-04-28T17:01:56.056Z,2.42
2019-04-28T17:04:25.857Z,2.20
2019-04-28T17:06:55.631Z,3.65
2019-04-28T17:09:25.411Z,2.95
2019-04-28T17:11:55.123Z,2.20
2019-04-28T17:14:24.794Z,1.45
2019-04-28T17:16:54.603Z,4.25
2019-04-28T17:19:24.272Z,3.25
2019-04-28T17:21:55.139Z,2.15
2019-04-28T17:24:24.859Z,3.40
2019-04-28T17:26:56.932Z,2.50
2019-04-28T17:29:26.685Z,5.33
2019-04-28T17:31:58.441Z,2.55
2019-04-28T17:34:28.238Z,1.42
2019-04-28T17:36:57.912Z,5.33
2019-04-28T17:39:29.000Z,2.10
2019-04-28T17:41:58.746Z,7.85
2019-04-28T17:44:29.949Z,3.30
2019-04-28T17:46:59.638Z,2.47
2019-04-28T17:49:31.005Z,6.87
2019-04-28T17:52:01.940Z,3.72
2019-04-28T17:54:33.359Z,3.62
2019-04-28T17:57:03.110Z,5.10
2019-04-28T17:59:32.889Z,3.05
2019-04-28T18:02:06.938Z,3.25
2019-04-28T18:04:54.786Z,2.95
2019-04-28T18:07:27.249Z,2.92
2019-04-28T18:09:57.093Z,4.72
2019-04-28T18:12:27.472Z,2.90
2019-04-28T18:14:58.897Z,2.75
2019-04-28T18:17:40.832Z,5.12
2019-04-28T18:20:12.267Z,3.65
2019-04-28T18:22:43.519Z,3.65
2019-04-28T18:25:13.718Z,2.20
2019-04-28T18:27:43.813Z,4.53
2019-04-28T18:30:15.390Z,4.30
2019-04-28T18:32:58.235Z,3.37
2019-04-28T18:35:32.625Z,5.65
2019-04-28T18:38:19.398Z,4.58
2019-04-28T18:40:59.912Z,2.83
2019-04-28T18:43:43.636Z,8.98
2019-04-28T18:46:15.520Z,3.77
2019-04-28T18:48:46.029Z,4.00
2019-04-28T18:51:15.995Z,4.53
2019-04-28T18:53:45.922Z,3.83
2019-04-28T18:56:16.567Z,2.92
2019-04-28T18:58:46.701Z,2.97
2019-04-28T19:01:24.230Z,1.75
2019-04-28T19:04:02.741Z,3.60
2019-04-28T19:06:33.776Z,4.60
2019-04-28T19:09:23.509Z,3.37
2019-04-28T19:12:04.140Z,3.00
2019-04-28T19:14:47.742Z,6.00
2019-04-28T19:17:21.837Z,4.97
2019-04-28T19:19:52.000Z,2.67
2019-04-28T19:22:45.091Z,3.10
2019-04-28T19:25:16.388Z,2.67
2019-04-28T19:27:46.167Z,3.27
2019-04-28T19:30:17.707Z,2.83
2019-04-28T19:32:47.501Z,2.70
2019-04-28T19:35:17.256Z,5.33
2019-04-28T19:37:47.023Z,4.13
2019-04-28T19:40:16.839Z,5.20
2019-04-28T19:42:47.873Z,2.13
2019-04-28T19:45:19.016Z,3.17
2019-04-28T19:47:48.811Z,3.87
2019-04-28T19:50:19.633Z,3.08
2019-04-28T19:52:49.362Z,3.53
2019-04-28T19:55:20.729Z,2.03
2019-04-28T19:57:52.049Z,3.70
2019-04-28T20:00:29.433Z,3.57
2019-04-28T20:03:18.562Z,4.60
2019-04-28T20:05:48.347Z,3.37
2019-04-28T20:08:18.133Z,1.87
2019-04-28T20:10:48.055Z,2.07
2019-04-28T20:13:17.984Z,4.43
2019-04-28T20:15:47.676Z,2.40
2019-04-28T20:18:17.457Z,5.87
2019-04-28T20:20:47.239Z,4.27
2019-04-28T20:23:16.925Z,4.27
2019-04-28T20:25:47.717Z,3.40
2019-04-28T20:28:17.459Z,4.10
2019-04-28T20:30:47.214Z,3.00
2019-04-28T20:33:16.998Z,4.53
2019-04-28T20:35:54.484Z,3.90
2019-04-28T20:38:25.939Z,3.37
2019-04-28T20:40:58.297Z,4.43
2019-04-28T20:43:29.105Z,3.87
2019-04-28T20:45:58.829Z,3.47
2019-04-28T20:48:28.619Z,2.73
2019-04-28T20:50:58.364Z,4.30
2019-04-28T20:53:28.059Z,5.43
2019-04-28T20:55:57.833Z,5.20
2019-04-28T20:58:28.534Z,4.27
2019-04-28T21:00:59.423Z,3.07
2019-04-28T21:03:29.400Z,3.00
2019-04-28T21:05:59.320Z,4.70
2019-04-28T21:08:29.110Z,4.43
2019-04-28T21:10:59.094Z,6.10
2019-04-28T21:13:29.797Z,7.63
2019-04-28T21:15:59.593Z,2.63
2019-04-28T21:18:30.455Z,4.77
2019-04-28T21:21:01.394Z,3.03
2019-04-28T21:23:31.085Z,4.80
2019-04-28T21:26:01.005Z,4.00
2019-04-28T21:28:36.217Z,2.57
2019-04-28T21:31:07.624Z,3.30
2019-04-28T21:33:37.600Z,5.33
2019-04-28T21:36:08.430Z,10.10
2019-04-28T21:38:38.219Z,1.90
2019-04-28T21:41:08.312Z,4.20
2019-04-28T21:43:44.626Z,4.47
2019-04-28T21:46:24.472Z,3.83
2019-04-28T21:48:55.822Z,8.80
2019-04-28T21:51:25.576Z,6.07
2019-04-28T21:53:55.455Z,4.07
2019-04-28T21:56:26.331Z,3.83
2019-04-28T21:58:56.092Z,5.10
2019-04-28T22:01:26.083Z,5.47
2019-04-28T22:03:57.064Z,4.17
2019-04-28T22:06:26.939Z,4.20
2019-04-28T22:08:56.959Z,5.53
2019-04-28T22:11:26.676Z,4.57
2019-04-28T22:13:56.426Z,4.23
2019-04-28T22:16:26.171Z,4.30
2019-04-28T22:18:56.263Z,7.70
2019-04-28T22:21:25.992Z,4.83
2019-04-28T22:23:57.360Z,4.23
2019-04-28T22:26:42.803Z,4.40
2019-04-28T22:29:13.263Z,5.70
2019-04-28T22:31:43.538Z,3.40
2019-04-28T22:34:14.509Z,3.50
2019-04-28T22:36:49.685Z,3.37
2019-04-28T22:39:19.484Z,4.43
2019-04-28T22:41:49.232Z,2.43
2019-04-28T22:44:19.008Z,1.97
2019-04-28T22:46:49.389Z,4.50
2019-04-28T22:49:19.187Z,2.57
2019-04-28T22:51:49.999Z,4.67
2019-04-28T22:54:30.341Z,5.23
2019-04-28T22:57:04.824Z,4.07
2019-04-28T22:59:38.222Z,3.10
2019-04-28T23:02:18.655Z,2.30
2019-04-28T23:04:52.923Z,3.67
2019-04-28T23:07:23.046Z,2.47
2019-04-28T23:09:54.231Z,2.27
2019-04-28T23:12:23.949Z,2.67
2019-04-28T23:14:54.729Z,3.20
2019-04-28T23:17:25.610Z,3.97
2019-04-28T23:19:55.393Z,2.40
2019-04-28T23:22:46.030Z,6.13
2019-04-28T23:25:06.097Z,3.50
2019-04-28T23:27:38.620Z,2.97
2019-04-28T23:30:09.258Z,3.73
2019-04-28T23:32:39.088Z,4.17
2019-04-28T23:35:09.719Z,3.67
2019-04-28T23:37:40.485Z,6.17
2019-04-28T23:40:10.153Z,3.83
2019-04-28T23:42:41.514Z,5.47
2019-04-28T23:45:12.327Z,4.00
2019-04-28T23:47:44.312Z,3.40
2019-04-28T23:50:15.766Z,3.63
2019-04-28T23:52:48.752Z,4.90
2019-04-28T23:55:19.879Z,4.17
2019-04-28T23:57:50.714Z,2.73
